createdAt,value
2023-04-11T00:01:49.806Z,17.17
2023-04-11T00:04:17.914Z,18.42
2023-04-11T00:06:45.081Z,18.50
2023-04-11T00:09:12.627Z,18.73
2023-04-11T00:11:39.720Z,17.92
2023-04-11T00:14:07.611Z,18.85
2023-04-11T00:16:34.983Z,19.25
2023-04-11T00:19:02.382Z,18.10
2023-04-11T00:21:29.413Z,17.40
2023-04-11T00:23:56.414Z,18.20
2023-04-11T00:26:23.442Z,18.15
2023-04-11T00:28:50.500Z,18.40
2023-04-11T00:31:17.533Z,17.55
2023-04-11T00:33:44.719Z,17.77
2023-04-11T00:36:11.915Z,17.75
2023-04-11T00:38:39.371Z,19.52
2023-04-11T00:41:06.704Z,18.77
2023-04-11T00:43:33.731Z,18.15
2023-04-11T00:46:01.445Z,17.83
2023-04-11T00:48:28.762Z,17.42
2023-04-11T00:50:56.339Z,18.48
2023-04-11T00:53:24.316Z,17.02
2023-04-11T00:55:52.168Z,18.35
2023-04-11T00:58:19.464Z,16.98
2023-04-11T01:00:50.066Z,17.70
2023-04-11T01:03:18.776Z,18.38
2023-04-11T01:05:47.247Z,17.88
2023-04-11T01:08:15.311Z,17.83
2023-04-11T01:10:42.514Z,17.23
2023-04-11T01:13:10.128Z,17.40
2023-04-11T01:15:37.152Z,18.17
2023-04-11T01:18:05.795Z,18.70
2023-04-11T01:20:33.630Z,17.88
2023-04-11T01:23:03.200Z,17.63
2023-04-11T01:25:30.457Z,18.08
2023-04-11T01:27:57.695Z,18.05
2023-04-11T01:30:24.883Z,18.08
2023-04-11T01:32:52.054Z,18.15
2023-04-11T01:35:19.329Z,18.08
2023-04-11T01:37:46.592Z,17.00
2023-04-11T01:40:18.736Z,18.23
2023-04-11T01:42:47.222Z,17.67
2023-04-11T01:45:15.060Z,17.40
2023-04-11T01:47:42.460Z,18.65
2023-04-11T01:50:09.867Z,17.45
2023-04-11T01:52:36.874Z,16.15
2023-04-11T01:55:04.140Z,17.85
2023-04-11T01:57:31.295Z,18.38
2023-04-11T01:59:58.284Z,17.25
2023-04-11T02:02:26.217Z,17.73
2023-04-11T02:04:53.363Z,16.95
2023-04-11T02:07:21.097Z,18.17
2023-04-11T02:09:48.261Z,16.98
2023-04-11T02:12:15.746Z,15.95
2023-04-11T02:14:44.289Z,18.88
2023-04-11T02:17:14.150Z,17.90
2023-04-11T02:19:41.774Z,16.98
2023-04-11T02:22:11.442Z,17.30
2023-04-11T02:24:40.450Z,17.17
2023-04-11T02:27:08.060Z,18.60
2023-04-11T02:29:35.721Z,16.38
2023-04-11T02:32:02.929Z,16.58
2023-04-11T02:34:30.012Z,17.67
2023-04-11T02:36:57.006Z,17.15
2023-04-11T02:39:24.322Z,16.95
2023-04-11T02:41:51.518Z,16.67
2023-04-11T02:44:19.877Z,17.25
2023-04-11T02:46:47.325Z,19.38
2023-04-11T02:49:14.614Z,17.88
2023-04-11T02:51:42.109Z,17.33
2023-04-11T02:54:09.137Z,16.83
2023-04-11T02:56:39.197Z,17.45
2023-04-11T02:59:07.119Z,17.15
2023-04-11T03:01:34.794Z,16.83
2023-04-11T03:04:02.111Z,17.80
2023-04-11T03:06:44.120Z,17.27
2023-04-11T03:09:11.884Z,16.92
2023-04-11T03:11:38.916Z,18.17
2023-04-11T03:14:06.059Z,17.40
2023-04-11T03:16:33.235Z,18.65
2023-04-11T03:19:00.611Z,17.00
2023-04-11T03:21:27.700Z,16.05
2023-04-11T03:23:54.782Z,17.67
2023-04-11T03:26:27.360Z,17.85
2023-04-11T03:28:59.141Z,18.20
2023-04-11T03:31:31.226Z,16.52
2023-04-11T03:33:59.387Z,12.75
2023-04-11T03:36:27.235Z,13.88
2023-04-11T03:38:54.923Z,13.45
2023-04-11T03:41:22.330Z,14.27
2023-04-11T03:43:50.767Z,14.10
2023-04-11T03:46:20.221Z,13.38
2023-04-11T03:48:48.019Z,13.95
2023-04-11T03:51:16.994Z,13.30
2023-04-11T03:53:57.790Z,12.43
2023-04-11T03:56:29.649Z,13.85
2023-04-11T03:58:57.082Z,12.85
2023-04-11T04:01:28.824Z,13.57
2023-04-11T04:04:02.130Z,12.38
2023-04-11T04:06:31.117Z,11.45
2023-04-11T04:08:59.899Z,11.38
2023-04-11T04:11:31.887Z,11.77
2023-04-11T04:13:59.537Z,12.07
2023-04-11T04:16:26.657Z,11.52
2023-04-11T04:18:58.089Z,12.32
2023-04-11T04:21:26.895Z,12.85
2023-04-11T04:23:57.911Z,12.57
2023-04-11T04:26:44.013Z,12.55
2023-04-11T04:29:34.783Z,12.02
2023-04-11T04:32:13.489Z,12.70
2023-04-11T04:34:49.468Z,12.63
2023-04-11T04:37:25.377Z,13.10
2023-04-11T04:40:08.667Z,13.07
2023-04-11T04:42:44.461Z,14.32
2023-04-11T04:45:11.965Z,13.18
2023-04-11T04:47:39.240Z,12.63
2023-04-11T04:50:07.228Z,12.00
2023-04-11T04:52:34.691Z,13.57
2023-04-11T04:55:02.573Z,13.15
2023-04-11T04:57:32.195Z,13.40
2023-04-11T04:59:59.967Z,14.57
2023-04-11T05:02:27.810Z,15.05
2023-04-11T05:05:04.200Z,14.52
2023-04-11T05:07:32.911Z,13.95
2023-04-11T05:10:00.276Z,13.85
2023-04-11T05:12:30.514Z,15.68
2023-04-11T05:15:03.194Z,15.73
2023-04-11T05:17:31.941Z,17.40
2023-04-11T05:19:59.052Z,16.02
2023-04-11T05:22:27.347Z,15.75
2023-04-11T05:24:57.061Z,16.20
2023-04-11T05:27:24.132Z,16.20
2023-04-11T05:29:51.622Z,16.60
2023-04-11T05:32:19.552Z,20.08
2023-04-11T05:34:56.669Z,18.48
2023-04-11T05:37:40.568Z,18.60
2023-04-11T05:40:09.012Z,18.42
2023-04-11T05:42:36.156Z,19.92
2023-04-11T05:45:03.138Z,18.00
2023-04-11T05:47:31.285Z,17.65
2023-04-11T05:49:58.332Z,18.27
2023-04-11T05:52:25.771Z,19.20
2023-04-11T05:54:52.793Z,17.92
2023-04-11T05:57:19.835Z,18.17
2023-04-11T05:59:50.008Z,16.73
2023-04-11T06:02:17.602Z,17.13
2023-04-11T06:04:44.907Z,17.17
2023-04-11T06:07:12.559Z,15.68
2023-04-11T06:09:42.573Z,16.23
2023-04-11T06:12:09.815Z,16.45
2023-04-11T06:14:39.553Z,15.52
2023-04-11T06:17:07.357Z,16.20
2023-04-11T06:19:34.347Z,17.27
2023-04-11T06:22:01.678Z,18.08
2023-04-11T06:24:37.261Z,18.17
2023-04-11T06:27:04.955Z,18.13
2023-04-11T06:29:32.319Z,18.67
2023-04-11T06:31:59.507Z,21.13
2023-04-11T06:34:26.549Z,20.70
2023-04-11T06:36:53.696Z,17.73
2023-04-11T06:39:20.757Z,18.13
2023-04-11T06:41:48.291Z,15.20
2023-04-11T06:44:24.218Z,15.48
2023-04-11T06:46:51.322Z,17.55
2023-04-11T06:49:19.081Z,15.90
2023-04-11T06:51:50.373Z,17.00
2023-04-11T06:54:18.700Z,13.00
2023-04-11T06:56:45.919Z,13.30
2023-04-11T06:59:13.753Z,12.27
2023-04-11T07:01:40.901Z,14.43
2023-04-11T07:04:08.951Z,13.73
2023-04-11T07:06:36.116Z,9.95
2023-04-11T07:09:06.794Z,12.05
2023-04-11T07:11:33.903Z,11.18
2023-04-11T07:14:02.046Z,13.38
2023-04-11T07:16:29.244Z,13.07
2023-04-11T07:18:56.839Z,12.75
2023-04-11T07:21:23.860Z,16.92
2023-04-11T07:23:52.815Z,18.50
2023-04-11T07:26:19.844Z,19.10
2023-04-11T07:28:47.529Z,17.60
2023-04-11T07:31:15.266Z,18.25
2023-04-11T07:33:45.536Z,18.45
2023-04-11T07:36:12.820Z,18.10
2023-04-11T07:38:39.889Z,17.88
2023-04-11T07:41:08.364Z,17.20
2023-04-11T07:43:35.474Z,17.45
2023-04-11T07:46:02.702Z,17.42
2023-04-11T07:48:31.055Z,18.60
2023-04-11T07:50:58.064Z,17.58
2023-04-11T07:53:25.162Z,18.00
2023-04-11T07:55:52.109Z,18.75
2023-04-11T07:58:19.127Z,18.52
2023-04-11T08:00:46.372Z,18.98
2023-04-11T08:03:13.726Z,18.80
2023-04-11T08:05:41.019Z,16.77
2023-04-11T08:08:08.227Z,11.40
2023-04-11T08:10:35.341Z,10.27
2023-04-11T08:13:02.440Z,10.85
2023-04-11T08:15:29.541Z,11.75
2023-04-11T08:17:56.776Z,11.50
2023-04-11T08:20:24.772Z,12.15
2023-04-11T08:22:51.871Z,13.43
2023-04-11T08:25:25.604Z,13.85
2023-04-11T08:27:52.754Z,13.82
2023-04-11T08:30:20.686Z,12.38
2023-04-11T08:32:47.924Z,12.63
2023-04-11T08:35:15.075Z,12.82
2023-04-11T08:37:44.414Z,13.73
2023-04-11T08:40:11.991Z,13.38
2023-04-11T08:42:39.897Z,15.23
2023-04-11T08:45:08.924Z,13.98
2023-04-11T08:47:39.382Z,13.27
2023-04-11T08:50:07.406Z,14.52
2023-04-11T08:52:34.866Z,15.98
2023-04-11T08:55:02.075Z,14.07
2023-04-11T08:57:31.812Z,14.68
2023-04-11T09:00:10.080Z,14.32
2023-04-11T09:02:55.629Z,13.13
2023-04-11T09:05:33.880Z,13.98
2023-04-11T09:08:03.939Z,13.23
2023-04-11T09:10:30.929Z,12.80
2023-04-11T09:12:58.453Z,13.60
2023-04-11T09:15:28.002Z,13.60
2023-04-11T09:17:58.173Z,13.13
2023-04-11T09:20:29.619Z,14.05
2023-04-11T09:22:59.071Z,13.30
2023-04-11T09:25:26.192Z,12.68
2023-04-11T09:28:08.533Z,13.20
2023-04-11T09:30:37.264Z,13.18
2023-04-11T09:33:25.868Z,12.55
2023-04-11T09:35:55.172Z,13.43
2023-04-11T09:38:33.344Z,13.30
2023-04-11T09:41:01.770Z,12.98
2023-04-11T09:43:48.568Z,12.02
2023-04-11T09:46:18.865Z,13.75
2023-04-11T09:49:01.836Z,13.98
2023-04-11T09:51:36.543Z,14.18
2023-04-11T09:54:05.848Z,12.63
2023-04-11T09:56:36.530Z,13.77
2023-04-11T09:59:05.134Z,14.68
2023-04-11T10:01:32.514Z,13.07
2023-04-11T10:04:01.450Z,12.93
2023-04-11T10:06:39.334Z,12.70
2023-04-11T10:09:12.926Z,12.90
2023-04-11T10:11:46.204Z,11.60
2023-04-11T10:14:39.388Z,10.52
2023-04-11T10:17:21.422Z,12.15
2023-04-11T10:19:59.582Z,11.95
2023-04-11T10:22:41.824Z,12.75
2023-04-11T10:25:51.108Z,12.60
2023-04-11T10:28:39.285Z,12.32
2023-04-11T10:31:13.440Z,11.82
2023-04-11T10:34:01.053Z,11.50
2023-04-11T10:36:28.067Z,11.80
2023-04-11T10:38:55.050Z,11.43
2023-04-11T10:41:28.533Z,11.50
2023-04-11T10:44:14.937Z,12.60
2023-04-11T10:49:38.496Z,11.98
2023-04-11T10:52:23.044Z,11.73
2023-04-11T10:54:52.750Z,11.57
2023-04-11T10:57:20.789Z,11.68
2023-04-11T10:59:50.875Z,11.13
2023-04-11T11:02:22.104Z,11.00
2023-04-11T11:04:49.619Z,11.00
2023-04-11T11:07:17.586Z,11.07
2023-04-11T11:09:51.474Z,10.38
2023-04-11T11:12:18.694Z,10.55
2023-04-11T11:14:47.591Z,11.00
2023-04-11T11:17:16.099Z,10.82
2023-04-11T11:19:47.624Z,11.30
2023-04-11T11:22:25.598Z,10.30
2023-04-11T11:24:53.269Z,10.32
2023-04-11T11:27:24.968Z,11.00
2023-04-11T11:29:52.915Z,10.18
2023-04-11T11:32:29.061Z,10.10
2023-04-11T11:34:57.844Z,11.15
2023-04-11T11:37:25.219Z,10.23
2023-04-11T11:39:53.177Z,10.68
2023-04-11T11:42:20.568Z,10.02
2023-04-11T11:44:47.820Z,10.48
2023-04-11T11:47:17.933Z,10.18
2023-04-11T11:49:51.060Z,9.90
2023-04-11T11:52:34.945Z,10.73
2023-04-11T11:55:08.794Z,9.95
2023-04-11T11:57:37.870Z,10.32
2023-04-11T12:00:11.827Z,10.35
2023-04-11T12:02:40.238Z,10.05
2023-04-11T12:05:08.651Z,10.63
2023-04-11T12:07:38.457Z,9.65
2023-04-11T12:10:11.908Z,9.73
2023-04-11T12:12:42.327Z,10.30
2023-04-11T12:15:16.269Z,10.63
2023-04-11T12:17:43.880Z,10.10
2023-04-11T12:20:11.357Z,9.30
2023-04-11T12:22:38.609Z,9.57
2023-04-11T12:25:09.910Z,10.60
2023-04-11T12:27:38.160Z,9.48
2023-04-11T12:30:06.347Z,10.73
2023-04-11T12:32:34.267Z,11.18
2023-04-11T12:35:03.161Z,9.55
2023-04-11T12:37:31.181Z,10.20
2023-04-11T12:39:58.222Z,9.95
2023-04-11T12:42:27.423Z,10.30
2023-04-11T12:44:54.875Z,10.02
2023-04-11T12:47:21.985Z,10.43
2023-04-11T12:49:49.021Z,9.90
2023-04-11T12:52:16.370Z,8.90
2023-04-11T12:54:43.367Z,10.05
2023-04-11T12:57:12.476Z,10.10
2023-04-11T13:02:07.982Z,10.75
2023-04-11T13:04:35.285Z,10.05
2023-04-11T13:07:02.380Z,10.40
2023-04-11T13:09:31.628Z,10.38
2023-04-11T13:11:59.781Z,9.02
2023-04-11T13:14:26.841Z,8.57
2023-04-11T13:16:54.154Z,8.27
2023-04-11T13:19:21.864Z,8.02
2023-04-11T13:21:49.326Z,7.60
2023-04-11T13:24:16.655Z,8.52
2023-04-11T13:26:45.224Z,9.15
2023-04-11T13:29:12.313Z,10.00
2023-04-11T13:31:39.456Z,8.77
2023-04-11T13:34:06.546Z,8.30
2023-04-11T13:36:33.685Z,9.30
2023-04-11T13:39:00.735Z,9.07
2023-04-11T13:41:27.759Z,8.98
2023-04-11T13:43:54.828Z,9.27
2023-04-11T13:46:21.938Z,8.70
2023-04-11T13:48:49.103Z,8.95
2023-04-11T13:51:16.264Z,8.52
2023-04-11T13:53:43.320Z,9.77
2023-04-11T13:56:11.444Z,8.20
2023-04-11T13:58:39.068Z,7.88
2023-04-11T14:01:06.928Z,8.02
2023-04-11T14:03:34.296Z,8.60
2023-04-11T14:06:01.747Z,8.30
2023-04-11T14:08:29.276Z,9.30
2023-04-11T14:10:56.516Z,9.05
2023-04-11T14:13:23.642Z,9.80
2023-04-11T14:16:01.388Z,10.40
2023-04-11T14:18:35.004Z,8.02
2023-04-11T14:21:02.424Z,8.88
2023-04-11T14:23:29.873Z,9.43
2023-04-11T14:25:57.001Z,10.63
2023-04-11T14:28:26.430Z,12.27
2023-04-11T14:30:55.472Z,9.82
2023-04-11T14:33:23.144Z,8.88
2023-04-11T14:35:51.143Z,8.88
2023-04-11T14:38:18.157Z,9.75
2023-04-11T14:40:45.217Z,9.38
2023-04-11T14:43:12.360Z,13.00
2023-04-11T14:45:39.602Z,9.75
2023-04-11T14:48:06.841Z,11.05
2023-04-11T14:50:34.271Z,9.95
2023-04-11T14:53:01.422Z,10.68
2023-04-11T14:55:28.598Z,10.68
2023-04-11T14:57:56.685Z,10.25
2023-04-11T15:00:25.057Z,9.85
2023-04-11T15:02:54.825Z,10.05
2023-04-11T15:05:23.855Z,9.95
2023-04-11T15:07:52.962Z,9.98
2023-04-11T15:10:22.583Z,11.02
2023-04-11T15:12:49.771Z,9.23
2023-04-11T15:15:17.510Z,9.80
2023-04-11T15:17:49.895Z,10.57
2023-04-11T15:20:17.399Z,9.73
2023-04-11T15:22:46.578Z,10.95
2023-04-11T15:25:16.259Z,10.45
2023-04-11T15:27:43.927Z,10.80
2023-04-11T15:30:11.590Z,11.98
2023-04-11T15:32:45.007Z,12.23
2023-04-11T15:35:12.386Z,11.18
2023-04-11T15:37:39.503Z,11.27
2023-04-11T15:40:07.222Z,11.77
2023-04-11T15:42:35.592Z,11.90
2023-04-11T15:45:03.235Z,12.10
2023-04-11T15:47:31.572Z,12.23
2023-04-11T15:50:02.988Z,12.02
2023-04-11T15:52:30.720Z,13.55
2023-04-11T15:54:57.781Z,12.98
2023-04-11T15:57:24.921Z,11.40
2023-04-11T15:59:51.922Z,11.70
2023-04-11T16:02:19.013Z,11.48
2023-04-11T16:04:47.934Z,12.05
2023-04-11T16:07:18.643Z,12.95
2023-04-11T16:09:46.535Z,10.93
2023-04-11T16:12:13.629Z,10.05
2023-04-11T16:14:40.741Z,11.23
2023-04-11T16:17:07.736Z,12.20
2023-04-11T16:19:35.138Z,11.48
2023-04-11T16:22:02.241Z,10.90
2023-04-11T16:24:30.040Z,11.10
2023-04-11T16:26:57.512Z,11.48
2023-04-11T16:29:25.425Z,13.65
2023-04-11T16:31:52.646Z,13.30
2023-04-11T16:34:19.724Z,13.40
2023-04-11T16:36:46.786Z,12.85
2023-04-11T16:39:14.095Z,11.98
2023-04-11T16:41:41.247Z,11.60
2023-04-11T16:44:14.101Z,11.75
2023-04-11T16:46:41.975Z,12.30
2023-04-11T16:49:09.853Z,11.80
2023-04-11T16:51:37.804Z,13.45
2023-04-11T16:54:09.736Z,13.02
2023-04-11T16:56:37.709Z,13.35
2023-04-11T16:59:05.363Z,13.98
2023-04-11T17:01:32.549Z,13.98
2023-04-11T17:04:02.398Z,12.48
2023-04-11T17:06:29.635Z,12.00
2023-04-11T17:08:57.867Z,13.52
2023-04-11T17:11:25.213Z,13.02
2023-04-11T17:13:54.678Z,11.52
2023-04-11T17:16:22.197Z,14.05
2023-04-11T17:18:49.311Z,11.80
2023-04-11T17:21:17.212Z,11.55
2023-04-11T17:23:44.954Z,12.10
2023-04-11T17:26:12.565Z,12.48
2023-04-11T17:28:40.959Z,12.73
2023-04-11T17:31:16.276Z,13.75
2023-04-11T17:33:43.908Z,13.52
2023-04-11T17:36:12.550Z,14.07
2023-04-11T17:38:40.978Z,12.18
2023-04-11T17:41:14.476Z,13.05
2023-04-11T17:43:43.098Z,13.02
2023-04-11T17:46:10.310Z,14.73
2023-04-11T17:48:37.471Z,13.35
2023-04-11T17:51:07.984Z,12.68
2023-04-11T17:53:35.108Z,11.85
2023-04-11T17:56:06.185Z,12.88
2023-04-11T17:58:33.998Z,13.20
2023-04-11T18:01:03.292Z,13.00
2023-04-11T18:06:02.789Z,12.10
2023-04-11T18:08:49.152Z,12.70
2023-04-11T18:11:17.287Z,13.45
2023-04-11T18:13:44.356Z,12.45
2023-04-11T18:16:11.960Z,13.20
2023-04-11T18:18:39.050Z,13.20
2023-04-11T18:21:07.913Z,13.23
2023-04-11T18:23:35.743Z,15.02
2023-04-11T18:26:02.783Z,13.30
2023-04-11T18:28:30.192Z,14.02
2023-04-11T18:30:57.335Z,13.93
2023-04-11T18:33:24.466Z,13.35
2023-04-11T18:35:51.841Z,13.65
2023-04-11T18:38:19.010Z,14.25
2023-04-11T18:40:46.371Z,14.35
2023-04-11T18:43:13.828Z,14.05
2023-04-11T18:45:42.006Z,15.95
2023-04-11T18:48:09.548Z,15.23
2023-04-11T18:50:45.441Z,15.88
2023-04-11T18:53:13.829Z,15.27
2023-04-11T18:55:41.468Z,16.05
2023-04-11T18:58:09.958Z,16.95
2023-04-11T19:00:39.013Z,13.93
2023-04-11T19:03:07.106Z,14.32
2023-04-11T19:05:34.741Z,17.27
2023-04-11T19:08:02.021Z,15.40
2023-04-11T19:10:29.193Z,16.40
2023-04-11T19:12:56.317Z,16.88
2023-04-11T19:15:23.839Z,15.25
2023-04-11T19:17:51.668Z,15.68
2023-04-11T19:20:19.343Z,15.90
2023-04-11T19:22:46.707Z,16.77
2023-04-11T19:25:14.189Z,17.58
2023-04-11T19:27:42.544Z,18.65
2023-04-11T19:30:11.451Z,16.63
2023-04-11T19:32:40.968Z,16.15
2023-04-11T20:08:38.982Z,17.58
2023-04-11T20:11:06.511Z,17.92
2023-04-11T20:13:34.034Z,18.05
2023-04-11T20:16:04.735Z,17.05
2023-04-11T20:18:31.922Z,17.30
2023-04-11T20:20:58.917Z,17.45
2023-04-11T20:23:26.199Z,16.50
2023-04-11T20:25:53.295Z,18.13
2023-04-11T20:28:21.653Z,17.15
2023-04-11T20:30:48.688Z,16.20
2023-04-11T20:33:15.816Z,17.38
2023-04-11T20:35:42.816Z,17.10
2023-04-11T20:38:09.868Z,17.52
2023-04-11T20:40:37.222Z,18.30
2023-04-11T20:43:05.621Z,17.38
2023-04-11T20:45:33.919Z,19.63
2023-04-11T20:48:02.200Z,18.13
2023-04-11T20:50:33.485Z,19.40
2023-04-11T20:53:01.830Z,18.88
2023-04-11T20:55:30.146Z,16.58
2023-04-11T20:57:57.216Z,18.38
2023-04-11T21:00:24.903Z,18.08
2023-04-11T21:02:52.111Z,19.52
2023-04-11T21:05:22.376Z,19.05
2023-04-11T21:07:49.606Z,17.70
2023-04-11T21:10:16.748Z,18.42
2023-04-11T21:12:43.868Z,18.02
2023-04-11T21:15:11.933Z,18.92
2023-04-11T21:17:39.759Z,18.70
2023-04-11T21:20:17.922Z,19.05
2023-04-11T21:22:49.644Z,18.63
2023-04-11T21:25:16.989Z,19.88
2023-04-11T21:27:44.415Z,18.75
2023-04-11T21:30:12.727Z,19.70
2023-04-11T21:32:40.494Z,19.02
2023-04-11T21:35:09.603Z,18.85
2023-04-11T21:37:36.886Z,19.08
2023-04-11T21:40:04.439Z,19.23
2023-04-11T21:42:31.466Z,19.52
2023-04-11T21:44:58.560Z,17.95
2023-04-11T21:47:25.791Z,17.95
2023-04-11T21:49:52.836Z,19.20
2023-04-11T21:52:19.880Z,18.70
2023-04-11T21:54:47.066Z,17.85
2023-04-11T21:57:14.144Z,18.75
2023-04-11T21:59:41.139Z,21.75
2023-04-11T22:02:08.414Z,18.58
2023-04-11T22:04:44.013Z,19.35
2023-04-11T22:07:24.150Z,17.60
2023-04-11T22:09:58.370Z,18.92
2023-04-11T22:12:27.241Z,17.63
2023-04-11T22:14:57.281Z,18.83
2023-04-11T22:17:24.409Z,17.45
2023-04-11T22:19:51.456Z,18.83
2023-04-11T22:22:18.867Z,17.80
2023-04-11T22:24:48.894Z,18.33
2023-04-11T22:27:18.349Z,18.38
2023-04-11T22:29:45.587Z,19.77
2023-04-11T22:32:12.616Z,17.75
2023-04-11T22:34:39.697Z,17.80
2023-04-11T22:37:06.693Z,18.23
2023-04-11T22:39:34.460Z,18.27
2023-04-11T22:42:01.509Z,17.38
2023-04-11T22:44:28.611Z,16.77
2023-04-11T22:47:08.106Z,17.13
2023-04-11T22:49:40.699Z,17.88
2023-04-11T22:52:09.556Z,18.02
2023-04-11T22:54:36.804Z,16.98
2023-04-11T22:57:03.918Z,15.88
2023-04-11T22:59:31.048Z,16.48
2023-04-11T23:01:58.138Z,17.58
2023-04-11T23:04:25.259Z,17.58
2023-04-11T23:06:53.719Z,16.55
2023-04-11T23:09:21.358Z,17.48
2023-04-11T23:11:49.019Z,17.90
2023-04-11T23:14:21.274Z,16.17
2023-04-11T23:16:48.719Z,15.93
2023-04-11T23:19:15.833Z,17.25
2023-04-11T23:21:43.179Z,16.58
2023-04-11T23:24:10.437Z,15.93
2023-04-11T23:26:37.463Z,17.52
2023-04-11T23:29:04.591Z,16.67
2023-04-11T23:31:32.755Z,16.42
2023-04-11T23:34:00.729Z,17.13
2023-04-11T23:36:29.356Z,17.83
2023-04-11T23:38:56.848Z,17.98
2023-04-11T23:41:24.210Z,17.05
2023-04-11T23:43:51.375Z,17.27
2023-04-11T23:46:18.485Z,17.65
2023-04-11T23:48:47.240Z,16.85
2023-04-11T23:51:14.814Z,16.67
2023-04-11T23:53:42.964Z,17.55
2023-04-11T23:56:10.065Z,17.70
2023-04-11T23:58:37.551Z,17.38
